Time;durP1;ratioP1;P1;durP2;ratioP2;P2;SDS_P1;SDS_P2;PMS_P1;PMS_P2;Temp;Humidity;BMP_temperature;BMP_pressure;BME280_temperature;BME280_humidity;BME280_pressure;Samples;Min_cycle;Max_cycle;Signal;HPM_P1;HPM_P2
2021/03/09 00:02:18;;;;;;;63.20;37.33;;;7.80;99.90;;;;;;4952540;29;20456;-75
2021/03/09 00:04:44;;;;;;;63.13;36.92;;;7.80;99.90;;;;;;4952321;29;20035;-76
2021/03/09 00:07:09;;;;;;;68.00;37.65;;;7.70;99.90;;;;;;4935514;29;20400;-78
2021/03/09 00:09:35;;;;;;;66.05;37.75;;;7.50;99.90;;;;;;4952006;29;20515;-77
2021/03/09 00:12:01;;;;;;;65.35;39.42;;;7.70;99.90;;;;;;4952557;29;20652;-77
2021/03/09 00:14:27;;;;;;;68.80;38.83;;;7.70;99.90;;;;;;4944762;28;20507;-76
2021/03/09 00:16:52;;;;;;;95.95;53.70;;;7.80;99.90;;;;;;4971732;28;20026;-77
2021/03/09 00:19:18;;;;;;;93.32;49.78;;;8.30;99.90;;;;;;4971612;28;20091;-75
2021/03/09 00:21:44;;;;;;;78.35;47.00;;;8.60;99.90;;;;;;4969749;28;20029;-77
2021/03/09 00:24:09;;;;;;;142.07;78.63;;;8.50;99.90;;;;;;4971010;28;20406;-76
2021/03/09 00:26:35;;;;;;;76.85;45.03;;;8.40;99.90;;;;;;4971038;28;20508;-75
2021/03/09 00:29:01;;;;;;;66.18;40.05;;;8.20;99.90;;;;;;4968483;28;20027;-75
2021/03/09 00:31:27;;;;;;;60.60;38.85;;;7.80;99.90;;;;;;4956183;28;20026;-76
2021/03/09 00:33:52;;;;;;;64.82;37.40;;;7.90;99.90;;;;;;4938456;28;20558;-74
2021/03/09 00:36:18;;;;;;;63.53;38.35;;;8.00;99.90;;;;;;4954469;29;20035;-76
2021/03/09 00:38:44;;;;;;;67.63;39.55;;;7.90;99.90;;;;;;4965723;28;20031;-76
2021/03/09 00:41:10;;;;;;;60.00;38.08;;;7.80;99.90;;;;;;4975180;28;20030;-76
2021/03/09 00:43:35;;;;;;;68.60;38.88;;;7.80;99.90;;;;;;4957861;28;20480;-76
2021/03/09 00:46:01;;;;;;;64.30;38.25;;;7.80;99.90;;;;;;4957730;28;20026;-77
2021/03/09 00:48:35;;;;;;;61.05;37.60;;;7.70;99.90;;;;;;4975420;28;20110;-75
2021/03/09 00:51:01;;;;;;;62.42;35.97;;;7.70;99.90;;;;;;4974828;28;20023;-75
2021/03/09 00:53:27;;;;;;;66.80;37.60;;;7.70;99.90;;;;;;4975268;28;20064;-74
2021/03/09 00:55:53;;;;;;;56.22;34.33;;;7.70;99.90;;;;;;4974397;28;20377;-74
2021/03/09 00:58:18;;;;;;;62.25;37.08;;;7.80;99.90;;;;;;4975193;28;20078;-74
2021/03/09 01:00:44;;;;;;;58.40;35.50;;;7.80;99.90;;;;;;4974744;28;20034;-75
2021/03/09 01:03:10;;;;;;;61.17;35.65;;;7.70;99.90;;;;;;4973901;28;20046;-74
2021/03/09 01:05:35;;;;;;;57.78;35.92;;;7.80;99.90;;;;;;4974185;28;20043;-74
2021/03/09 01:08:01;;;;;;;56.67;34.40;;;7.80;99.90;;;;;;4975017;28;20495;-74
2021/03/09 01:10:27;;;;;;;61.40;34.05;;;7.80;99.90;;;;;;4974115;28;20031;-75
2021/03/09 01:12:52;;;;;;;55.50;34.53;;;7.70;99.90;;;;;;4957993;28;20034;-77
2021/03/09 01:15:18;;;;;;;60.97;35.22;;;7.70;99.90;;;;;;4956629;28;20030;-76
2021/03/09 01:17:44;;;;;;;56.58;35.25;;;7.70;99.90;;;;;;4974706;28;20046;-76
2021/03/09 01:20:10;;;;;;;52.67;32.15;;;7.70;99.90;;;;;;4974053;28;20039;-75
2021/03/09 01:22:36;;;;;;;57.58;33.03;;;7.70;99.90;;;;;;4957336;28;20388;-76
2021/03/09 01:25:03;;;;;;;60.53;35.60;;;7.70;99.90;;;;;;4974254;28;20033;-76
2021/03/09 01:27:29;;;;;;;53.45;33.65;;;7.70;99.90;;;;;;4957317;28;20784;-75
2021/03/09 01:29:55;;;;;;;57.60;35.15;;;7.70;99.90;;;;;;4974253;28;20539;-75
2021/03/09 01:32:21;;;;;;;52.72;32.97;;;7.60;99.90;;;;;;4945219;29;20031;-76
2021/03/09 01:34:47;;;;;;;47.78;32.65;;;7.60;99.90;;;;;;4954875;29;20362;-77
2021/03/09 01:37:13;;;;;;;54.50;33.47;;;7.60;99.90;;;;;;4969409;28;20762;-75
2021/03/09 01:39:39;;;;;;;58.58;33.60;;;7.60;99.90;;;;;;4973528;28;20075;-76
2021/03/09 01:42:05;;;;;;;60.17;35.97;;;7.70;99.90;;;;;;4974699;28;20030;-75
2021/03/09 01:44:31;;;;;;;58.35;35.90;;;7.70;99.90;;;;;;4956594;28;20122;-75
2021/03/09 01:47:00;;;;;;;57.28;34.30;;;7.60;99.90;;;;;;4974598;28;20370;-75
2021/03/09 01:49:29;;;;;;;60.92;35.72;;;7.60;99.90;;;;;;4974668;28;20468;-76
2021/03/09 01:51:55;;;;;;;58.50;35.20;;;7.50;99.90;;;;;;4974103;28;20057;-75
2021/03/09 01:54:21;;;;;;;63.92;33.78;;;7.50;99.90;;;;;;4974527;28;20380;-74
2021/03/09 01:56:46;;;;;;;54.95;33.95;;;7.50;99.90;;;;;;4974201;28;20465;-74
2021/03/09 01:59:15;;;;;;;53.92;32.25;;;7.50;99.90;;;;;;4974186;28;20026;-75
2021/03/09 02:01:41;;;;;;;56.85;33.00;;;7.40;99.90;;;;;;4973786;28;20489;-75
2021/03/09 02:04:07;;;;;;;55.58;34.00;;;7.30;99.90;;;;;;4974263;28;20031;-74
2021/03/09 02:06:34;;;;;;;50.38;31.73;;;7.40;99.90;;;;;;4973718;28;20031;-76
2021/03/09 02:09:01;;;;;;;50.70;32.55;;;7.50;99.90;;;;;;4974236;28;20031;-74
2021/03/09 02:12:00;;;;;;;54.70;32.08;;;7.50;99.90;;;;;;4956521;28;20144;-76
2021/03/09 02:14:32;;;;;;;52.58;32.65;;;7.50;99.90;;;;;;4974275;28;20484;-75
2021/03/09 02:17:21;;;;;;;53.00;31.95;;;7.60;99.90;;;;;;4973440;28;20038;-76
2021/03/09 02:20:17;;;;;;;53.08;30.73;;;7.70;99.90;;;;;;4964748;28;20050;-75
2021/03/09 02:23:01;;;;;;;53.33;31.80;;;7.70;99.90;;;;;;4974007;28;20030;-75
2021/03/09 02:26:01;;;;;;;52.35;32.60;;;7.60;99.90;;;;;;4971777;28;20019;-75
2021/03/09 02:29:05;;;;;;;53.80;31.75;;;7.50;99.90;;;;;;4973900;28;20037;-74
2021/03/09 02:31:32;;;;;;;51.20;30.52;;;7.60;99.90;;;;;;4956042;28;20034;-76
2021/03/09 02:34:10;;;;;;;53.50;33.45;;;7.60;99.90;;;;;;4973707;28;20031;-74
2021/03/09 02:36:38;;;;;;;60.13;32.40;;;7.70;99.90;;;;;;4972992;28;20027;-75
2021/03/09 02:39:07;;;;;;;53.85;33.45;;;7.70;99.90;;;;;;4973674;28;20018;-76
2021/03/09 02:41:42;;;;;;;53.30;33.45;;;7.80;99.90;;;;;;4972799;28;20070;-76
2021/03/09 02:44:10;;;;;;;51.38;32.10;;;7.80;99.90;;;;;;4973151;28;20051;-75
2021/03/09 02:46:38;;;;;;;55.72;32.00;;;7.80;99.90;;;;;;4973005;28;20033;-74
2021/03/09 02:49:07;;;;;;;49.20;31.38;;;7.70;99.90;;;;;;4973557;28;20034;-76
2021/03/09 02:51:36;;;;;;;58.47;36.28;;;7.70;99.90;;;;;;4972880;28;20109;-76
2021/03/09 02:54:03;;;;;;;59.30;34.60;;;7.70;99.90;;;;;;4973150;28;20035;-76
2021/03/09 02:56:29;;;;;;;60.65;36.63;;;7.70;99.90;;;;;;4972561;28;20077;-74
2021/03/09 02:58:57;;;;;;;61.42;36.63;;;7.60;99.90;;;;;;4973105;28;20034;-74
2021/03/09 03:01:28;;;;;;;51.30;34.03;;;7.60;99.90;;;;;;4972718;28;20019;-75
2021/03/09 03:03:54;;;;;;;55.45;34.88;;;7.60;99.90;;;;;;4972830;28;20031;-76
2021/03/09 03:06:21;;;;;;;58.92;34.80;;;7.70;99.90;;;;;;4972617;28;20038;-75
2021/03/09 03:08:47;;;;;;;55.30;34.13;;;7.70;99.90;;;;;;4972918;28;20030;-76
2021/03/09 03:11:14;;;;;;;54.33;34.33;;;7.60;99.90;;;;;;4972490;28;20031;-75
2021/03/09 03:13:41;;;;;;;58.47;35.97;;;7.50;99.90;;;;;;4972820;28;20030;-76
2021/03/09 03:16:10;;;;;;;55.47;34.28;;;7.50;99.90;;;;;;4972359;28;20162;-76
2021/03/09 03:18:39;;;;;;;56.33;34.10;;;7.60;99.90;;;;;;4971769;28;20101;-77
2021/03/09 03:21:08;;;;;;;52.95;33.45;;;7.50;99.90;;;;;;4971337;28;20035;-76
2021/03/09 03:23:34;;;;;;;56.33;32.67;;;7.50;99.90;;;;;;4972683;28;20023;-75
2021/03/09 03:26:05;;;;;;;52.20;32.60;;;7.60;99.90;;;;;;4972400;28;20030;-75
2021/03/09 03:28:32;;;;;;;;;;;7.60;99.90;;;;;;4973556;28;20448;-74
2021/03/09 03:30:58;;;;;;;51.97;33.30;;;7.20;99.90;;;;;;4965610;28;19911;-75
2021/03/09 03:33:24;;;;;;;57.92;33.40;;;7.30;99.90;;;;;;4953096;29;20078;-75
2021/03/09 03:35:50;;;;;;;54.00;33.67;;;7.20;99.90;;;;;;4953033;29;20188;-75
2021/03/09 03:38:16;;;;;;;51.55;32.80;;;7.20;99.90;;;;;;4953072;29;20126;-74
2021/03/09 03:40:45;;;;;;;58.88;35.05;;;7.10;99.90;;;;;;4936061;29;20020;-73
2021/03/09 03:43:10;;;;;;;60.30;35.10;;;6.90;99.90;;;;;;4952568;29;20023;-74
2021/03/09 03:45:37;;;;;;;60.03;35.20;;;6.80;99.90;;;;;;4953063;29;20043;-75
2021/03/09 03:48:03;;;;;;;63.97;37.33;;;6.70;99.90;;;;;;4952690;29;20031;-75
2021/03/09 03:50:30;;;;;;;59.95;35.47;;;6.70;99.90;;;;;;4951949;29;20035;-75
2021/03/09 03:52:59;;;;;;;53.50;33.60;;;6.90;99.90;;;;;;4952820;29;20050;-75
2021/03/09 03:56:00;;;;;;;52.88;34.10;;;6.80;99.90;;;;;;4953150;29;20038;-74
2021/03/09 03:58:53;;;;;;;51.30;31.77;;;6.90;99.90;;;;;;4952432;29;20110;-75
2021/03/09 04:01:23;;;;;;;52.03;32.22;;;7.10;99.90;;;;;;4952921;28;20070;-74
2021/03/09 04:03:55;;;;;;;57.78;34.13;;;7.20;99.90;;;;;;4959619;29;20384;-74
2021/03/09 04:06:25;;;;;;;60.00;36.10;;;7.40;99.90;;;;;;4959129;28;20050;-75
2021/03/09 04:08:52;;;;;;;63.38;37.35;;;7.30;99.90;;;;;;4959499;29;20031;-75
2021/03/09 04:11:18;;;;;;;63.90;36.42;;;7.30;99.90;;;;;;4959185;29;20538;-74
2021/03/09 04:13:44;;;;;;;58.85;36.38;;;7.30;99.90;;;;;;4959238;29;20034;-74
2021/03/09 04:16:15;;;;;;;54.30;34.10;;;7.30;99.90;;;;;;4959360;29;20127;-75
2021/03/09 04:18:42;;;;;;;58.20;36.67;;;7.20;99.90;;;;;;4958643;28;20039;-73
2021/03/09 04:21:09;;;;;;;60.20;36.47;;;7.20;99.90;;;;;;4959325;29;20397;-75
2021/03/09 04:23:36;;;;;;;58.47;36.40;;;7.20;99.90;;;;;;4958922;29;20497;-76
2021/03/09 04:26:02;;;;;;;55.83;35.60;;;7.20;99.90;;;;;;4959389;29;20393;-75
2021/03/09 04:28:29;;;;;;;56.80;35.45;;;7.20;99.90;;;;;;4957555;28;20051;-75
2021/03/09 04:30:55;;;;;;;55.13;34.17;;;7.30;99.90;;;;;;4963772;28;20162;-75
2021/03/09 04:33:25;;;;;;;58.08;35.13;;;7.30;99.90;;;;;;4978110;28;20037;-74
2021/03/09 04:35:50;;;;;;;58.07;32.97;;;7.30;99.90;;;;;;4978302;28;20452;-74
2021/03/09 04:38:17;;;;;;;54.40;33.10;;;7.40;99.90;;;;;;4977873;28;20677;-75
2021/03/09 04:40:43;;;;;;;55.28;34.67;;;7.40;99.90;;;;;;4978453;28;20078;-75
2021/03/09 04:43:09;;;;;;;49.67;32.50;;;7.40;99.90;;;;;;4977966;28;20038;-73
2021/03/09 04:45:35;;;;;;;53.67;33.92;;;7.30;99.90;;;;;;4978138;28;20537;-75
2021/03/09 04:48:02;;;;;;;55.95;34.45;;;7.40;99.90;;;;;;4978047;28;20034;-75
2021/03/09 04:50:28;;;;;;;44.83;26.73;;;7.40;99.90;;;;;;4961489;28;20063;-76
2021/03/09 04:52:54;;;;;;;44.28;27.13;;;7.10;99.90;;;;;;4977737;28;20023;-75
2021/03/09 04:55:22;;;;;;;48.10;26.63;;;6.90;99.90;;;;;;4978431;28;20031;-76
2021/03/09 04:57:49;;;;;;;49.83;27.55;;;6.90;99.90;;;;;;4977843;28;20035;-74
2021/03/09 05:00:22;;;;;;;49.58;29.92;;;7.10;99.90;;;;;;4978205;28;20147;-76
2021/03/09 05:02:50;;;;;;;56.05;31.67;;;7.20;99.90;;;;;;4977827;28;20030;-74
2021/03/09 05:05:17;;;;;;;51.25;32.03;;;7.20;99.90;;;;;;4978512;28;20027;-75
2021/03/09 05:07:43;;;;;;;46.97;30.30;;;7.20;99.90;;;;;;4977915;28;20035;-75
2021/03/09 05:10:11;;;;;;;53.05;32.85;;;7.30;99.90;;;;;;4978525;28;20054;-76
2021/03/09 05:12:41;;;;;;;54.90;35.05;;;7.30;99.90;;;;;;4977847;28;20027;-73
2021/03/09 05:15:08;;;;;;;53.20;34.17;;;7.20;99.90;;;;;;4972433;28;20030;-73
2021/03/09 05:17:33;;;;;;;53.95;32.50;;;7.20;99.90;;;;;;4974426;28;20121;-73
2021/03/09 05:19:59;;;;;;;58.13;34.28;;;7.20;99.90;;;;;;4975341;28;20437;-75
2021/03/09 05:22:25;;;;;;;57.55;34.72;;;7.20;99.90;;;;;;4974313;28;20031;-74
2021/03/09 05:24:50;;;;;;;51.13;30.75;;;7.30;99.90;;;;;;4974907;28;20481;-74
2021/03/09 05:27:16;;;;;;;56.17;32.38;;;7.20;99.90;;;;;;4974563;28;20516;-75
2021/03/09 05:29:42;;;;;;;48.88;28.58;;;7.10;99.90;;;;;;4974653;28;20019;-75
2021/03/09 05:32:08;;;;;;;30.65;19.73;;;7.10;99.90;;;;;;4961635;28;20031;-75
2021/03/09 05:34:33;;;;;;;32.50;18.55;;;7.10;99.90;;;;;;4955563;29;20051;-74
2021/03/09 05:36:59;;;;;;;33.45;17.48;;;7.20;99.90;;;;;;4955481;29;20476;-75
2021/03/09 05:39:25;;;;;;;22.38;14.20;;;7.10;99.90;;;;;;4954895;29;20023;-74
2021/03/09 05:41:51;;;;;;;21.35;14.15;;;7.30;99.90;;;;;;4955074;29;20042;-74
2021/03/09 05:44:17;;;;;;;28.73;17.27;;;7.40;99.90;;;;;;4954111;29;20070;-75
2021/03/09 05:46:42;;;;;;;34.30;21.40;;;7.40;99.90;;;;;;4955207;29;20091;-74
2021/03/09 05:49:09;;;;;;;51.95;29.83;;;7.30;99.90;;;;;;4954444;29;20042;-74
2021/03/09 05:51:35;;;;;;;54.05;30.48;;;7.20;99.90;;;;;;4954955;29;20116;-74
2021/03/09 05:54:01;;;;;;;54.30;31.20;;;7.20;99.90;;;;;;4953285;29;20027;-73
2021/03/09 05:56:27;;;;;;;50.72;30.55;;;7.30;99.90;;;;;;4954932;29;20066;-74
2021/03/09 05:58:53;;;;;;;46.75;30.25;;;7.20;99.90;;;;;;4953302;29;20031;-73
2021/03/09 06:01:19;;;;;;;47.60;30.15;;;7.30;99.90;;;;;;4953440;29;20024;-75
2021/03/09 06:03:45;;;;;;;47.42;28.27;;;7.40;99.90;;;;;;4954614;29;20046;-75
2021/03/09 06:06:12;;;;;;;49.97;30.98;;;7.50;99.90;;;;;;4955219;29;20059;-75
2021/03/09 06:08:39;;;;;;;55.90;30.65;;;7.40;99.90;;;;;;4954299;29;20035;-76
2021/03/09 06:11:12;;;;;;;50.83;31.00;;;7.40;99.90;;;;;;4954851;29;20084;-76
2021/03/09 06:13:38;;;;;;;61.55;38.40;;;7.40;99.90;;;;;;4954272;29;20027;-80
2021/03/09 06:16:04;;;;;;;87.85;50.20;;;8.10;99.90;;;;;;4954204;28;20034;-76
2021/03/09 06:18:30;;;;;;;79.32;49.50;;;8.90;99.90;;;;;;4954381;29;20074;-74
2021/03/09 06:21:08;;;;;;;62.60;35.97;;;8.60;99.90;;;;;;4953041;29;20071;-76
2021/03/09 06:23:35;;;;;;;57.08;34.25;;;8.00;99.90;;;;;;4953842;29;20110;-75
2021/03/09 06:26:00;;;;;;;72.53;41.95;;;8.00;99.90;;;;;;4953765;28;20039;-76
2021/03/09 06:28:31;;;;;;;60.03;35.60;;;8.30;99.90;;;;;;4954000;29;20027;-76
2021/03/09 06:31:01;;;;;;;43.63;29.88;;;8.20;99.90;;;;;;4956492;28;20055;-77
2021/03/09 06:33:29;;;;;;;48.83;29.85;;;8.00;99.90;;;;;;4973195;28;20370;-77
2021/03/09 06:35:56;;;;;;;45.03;29.35;;;7.80;99.90;;;;;;4973315;28;20111;-77
2021/03/09 06:38:21;;;;;;;51.45;30.67;;;7.90;99.90;;;;;;4955686;28;20072;-77
2021/03/09 06:41:17;;;;;;;49.60;30.08;;;7.90;99.90;;;;;;4973113;28;20027;-75
2021/03/09 06:44:04;;;;;;;48.08;31.45;;;7.80;99.90;;;;;;4972730;28;20047;-74
2021/03/09 06:46:43;;;;;;;49.00;30.38;;;7.80;99.90;;;;;;4972648;28;20074;-73
2021/03/09 06:49:09;;;;;;;49.30;29.38;;;7.80;99.90;;;;;;4962896;28;20024;-76
2021/03/09 06:51:36;;;;;;;46.90;29.05;;;7.90;99.90;;;;;;4973241;28;20086;-74
2021/03/09 06:54:08;;;;;;;49.72;31.67;;;7.80;99.90;;;;;;4972615;28;20048;-74
2021/03/09 06:56:36;;;;;;;51.75;33.17;;;8.10;99.90;;;;;;4972948;28;20114;-76
2021/03/09 06:59:25;;;;;;;51.17;31.52;;;7.90;99.90;;;;;;4972359;28;20030;-75
2021/03/09 07:02:14;;;;;;;50.95;32.05;;;7.60;99.90;;;;;;4972689;28;20027;-75
2021/03/09 07:04:42;;;;;;;54.03;32.28;;;7.60;99.90;;;;;;4972611;28;20035;-75
2021/03/09 07:07:10;;;;;;;57.55;34.70;;;7.70;99.90;;;;;;4972899;28;20026;-75
2021/03/09 07:09:36;;;;;;;85.72;49.70;;;7.80;99.90;;;;;;4972295;28;20081;-77
2021/03/09 07:12:03;;;;;;;76.60;46.75;;;8.90;99.90;;;;;;4972616;28;20026;-76
2021/03/09 07:14:32;;;;;;;56.38;36.45;;;8.80;99.90;;;;;;4972673;28;20038;-73
2021/03/09 07:17:03;;;;;;;53.10;35.72;;;8.00;99.90;;;;;;4972474;28;20476;-76
2021/03/09 07:19:41;;;;;;;53.83;34.72;;;8.10;99.90;;;;;;4972258;28;20037;-75
2021/03/09 07:22:07;;;;;;;52.42;33.92;;;8.00;99.90;;;;;;4972784;28;20047;-77
2021/03/09 07:24:33;;;;;;;53.97;34.22;;;8.10;99.90;;;;;;4972323;28;20374;-75
2021/03/09 07:27:11;;;;;;;58.85;34.97;;;8.10;99.90;;;;;;4955755;28;20050;-78
2021/03/09 07:29:38;;;;;;;51.78;31.77;;;8.00;99.90;;;;;;4972205;28;20019;-76
2021/03/09 07:32:08;;;;;;;49.38;30.85;;;8.00;99.90;;;;;;4972675;28;20090;-77
2021/03/09 07:34:35;;;;;;;47.87;30.40;;;8.10;99.90;;;;;;4972550;28;20022;-77
2021/03/09 07:37:01;;;;;;;46.55;29.33;;;8.10;99.90;;;;;;4956715;28;20062;-76
2021/03/09 07:39:29;;;;;;;46.95;27.85;;;8.10;99.90;;;;;;4958023;28;20031;-76
2021/03/09 07:41:56;;;;;;;47.08;29.90;;;8.10;99.90;;;;;;4961621;28;20031;-76
2021/03/09 07:44:24;;;;;;;46.08;28.70;;;8.00;99.90;;;;;;4935377;29;20047;-76
2021/03/09 07:46:50;;;;;;;48.95;29.02;;;8.00;99.90;;;;;;4953070;29;20019;-77
2021/03/09 07:49:18;;;;;;;44.92;28.27;;;8.00;99.90;;;;;;4952596;29;20447;-76
2021/03/09 07:52:17;;;;;;;45.15;28.98;;;8.00;99.90;;;;;;4952709;28;20405;-76
2021/03/09 07:55:02;;;;;;;41.47;26.83;;;8.10;99.90;;;;;;4956740;28;20037;-77
2021/03/09 07:57:31;;;;;;;42.58;27.35;;;8.20;99.90;;;;;;4972272;28;20385;-77
2021/03/09 08:00:05;;;;;;;46.83;27.52;;;8.20;99.90;;;;;;4963518;28;20032;-77
2021/03/09 08:02:49;;;;;;;26.48;16.05;;;8.10;99.90;;;;;;4966384;28;20038;-78
2021/03/09 08:05:26;;;;;;;20.05;13.35;;;7.50;99.90;;;;;;4971367;28;20504;-77
2021/03/09 08:08:05;;;;;;;16.67;12.32;;;7.60;99.90;;;;;;4952574;28;20062;-77
2021/03/09 08:10:33;;;;;;;14.82;11.40;;;7.60;99.90;;;;;;4952522;29;20023;-77
2021/03/09 08:13:08;;;;;;;16.55;11.77;;;7.50;99.90;;;;;;4952838;28;20031;-76
2021/03/09 08:15:41;;;;;;;16.88;10.73;;;7.60;99.90;;;;;;4965116;28;20026;-75
2021/03/09 08:18:22;;;;;;;17.73;12.10;;;7.50;99.90;;;;;;4971588;28;20620;-76
2021/03/09 08:20:54;;;;;;;19.52;11.85;;;7.60;99.90;;;;;;4968520;28;20028;-77
2021/03/09 08:23:35;;;;;;;17.92;12.52;;;7.60;99.90;;;;;;4966085;28;20090;-77
2021/03/09 08:26:02;;;;;;;18.13;11.88;;;7.60;99.90;;;;;;4970630;28;20190;-77
2021/03/09 08:28:34;;;;;;;16.40;11.35;;;7.70;99.90;;;;;;4970631;28;20505;-76
2021/03/09 08:31:09;;;;;;;22.35;10.85;;;7.30;99.90;;;;;;4962941;28;20042;-76
2021/03/09 08:33:45;;;;;;;15.32;10.90;;;7.30;99.90;;;;;;4952625;29;20366;-77
2021/03/09 08:36:23;;;;;;;19.25;12.27;;;7.30;99.90;;;;;;4957232;28;20034;-75
2021/03/09 08:39:13;;;;;;;16.38;11.85;;;7.20;99.90;;;;;;4967539;28;20078;-76
2021/03/09 08:41:41;;;;;;;16.80;11.37;;;7.20;99.90;;;;;;4962149;28;20023;-76
2021/03/09 08:44:19;;;;;;;18.33;12.45;;;7.30;99.90;;;;;;4960689;28;20117;-77
2021/03/09 08:47:05;;;;;;;18.55;12.63;;;7.20;99.90;;;;;;4959618;28;20019;-73
2021/03/09 08:49:37;;;;;;;19.05;12.68;;;7.30;99.90;;;;;;4955465;28;20185;-75
2021/03/09 08:52:28;;;;;;;14.85;10.55;;;7.20;99.90;;;;;;4967628;28;20027;-76
2021/03/09 08:54:54;;;;;;;17.13;11.85;;;7.30;99.90;;;;;;4974516;28;20030;-74
2021/03/09 08:57:21;;;;;;;19.52;12.85;;;7.30;99.90;;;;;;4974873;28;20042;-76
2021/03/09 08:59:49;;;;;;;18.45;11.25;;;7.30;99.90;;;;;;4971854;28;20107;-76
2021/03/09 09:02:23;;;;;;;17.02;12.40;;;7.20;99.90;;;;;;4955530;29;20475;-75
2021/03/09 09:04:53;;;;;;;18.75;13.38;;;6.90;99.90;;;;;;4956286;29;20027;-75
2021/03/09 09:07:19;;;;;;;;;;;6.90;99.90;;;;;;4970060;28;20030;-76
2021/03/09 09:09:45;;;;;;;18.60;12.63;;;6.80;99.90;;;;;;4975094;28;19959;-77
2021/03/09 09:12:31;;;;;;;17.58;12.30;;;6.90;99.90;;;;;;4974543;28;20058;-75
2021/03/09 09:15:08;;;;;;;18.25;12.20;;;6.80;99.90;;;;;;4974763;28;20023;-75
2021/03/09 09:17:35;;;;;;;18.35;12.57;;;6.60;99.90;;;;;;4964034;28;20035;-77
2021/03/09 09:20:21;;;;;;;21.00;12.77;;;6.60;99.90;;;;;;4955386;29;20061;-76
2021/03/09 09:22:50;;;;;;;24.42;13.35;;;6.80;99.90;;;;;;4971320;28;20512;-74
2021/03/09 09:25:15;;;;;;;20.65;13.63;;;6.80;99.90;;;;;;4971474;28;20023;-74
2021/03/09 09:27:53;;;;;;;21.70;14.18;;;6.70;99.90;;;;;;4974450;28;20035;-75
2021/03/09 09:30:44;;;;;;;20.67;12.93;;;6.80;99.90;;;;;;4973340;28;20033;-76
2021/03/09 09:33:11;;;;;;;19.42;12.55;;;6.60;99.90;;;;;;4955498;29;20110;-75
2021/03/09 09:35:38;;;;;;;20.50;13.40;;;6.50;99.90;;;;;;4956471;28;20030;-75
2021/03/09 09:38:05;;;;;;;22.17;13.68;;;6.60;99.90;;;;;;4973632;28;20070;-77
2021/03/09 09:40:45;;;;;;;21.90;13.02;;;6.70;99.90;;;;;;4971768;28;20030;-74
2021/03/09 09:43:33;;;;;;;18.60;11.87;;;6.80;99.90;;;;;;4961913;28;20027;-75
2021/03/09 09:46:03;;;;;;;19.63;12.93;;;6.80;99.90;;;;;;4969404;28;20269;-75
2021/03/09 09:48:39;;;;;;;21.17;12.95;;;6.80;99.90;;;;;;4961744;28;20595;-75
2021/03/09 09:51:12;;;;;;;18.88;12.23;;;6.80;99.90;;;;;;4960481;28;20039;-74
2021/03/09 09:53:42;;;;;;;18.20;12.52;;;6.80;99.90;;;;;;4954655;28;20023;-76
2021/03/09 09:56:10;;;;;;;20.58;12.32;;;7.10;99.90;;;;;;4968098;28;20396;-75
2021/03/09 09:58:49;;;;;;;20.08;13.25;;;7.10;99.90;;;;;;4963643;28;20042;-76
2021/03/09 10:01:35;;;;;;;22.55;13.68;;;6.90;99.90;;;;;;4958590;28;20035;-77
2021/03/09 10:04:05;;;;;;;17.58;11.95;;;7.40;99.90;;;;;;4958630;28;20395;-78
2021/03/09 10:06:38;;;;;;;17.92;12.98;;;7.40;99.90;;;;;;4969756;28;20785;-78
2021/03/09 10:09:18;;;;;;;19.38;13.23;;;7.40;99.90;;;;;;4964276;28;20055;-78
2021/03/09 10:11:51;;;;;;;22.58;14.13;;;7.20;99.90;;;;;;4958948;28;20154;-77
2021/03/09 10:14:18;;;;;;;19.63;14.02;;;7.50;99.90;;;;;;4964199;28;20035;-75
2021/03/09 10:16:45;;;;;;;21.30;14.13;;;7.50;99.90;;;;;;4960130;28;20020;-76
2021/03/09 10:19:17;;;;;;;20.73;13.32;;;7.80;99.90;;;;;;4967417;28;20121;-74
2021/03/09 10:22:01;;;;;;;19.52;13.35;;;7.70;99.90;;;;;;4962987;28;20023;-74
2021/03/09 10:24:31;;;;;;;18.65;12.57;;;8.00;99.90;;;;;;4966115;28;20062;-75
2021/03/09 10:26:58;;;;;;;21.65;13.55;;;7.80;99.90;;;;;;4941351;28;20030;-74
2021/03/09 10:29:27;;;;;;;21.00;12.77;;;7.80;99.90;;;;;;4958277;28;20420;-75
2021/03/09 10:32:02;;;;;;;17.90;12.48;;;7.90;99.90;;;;;;4970204;28;20031;-76
2021/03/09 10:34:39;;;;;;;19.63;13.15;;;8.00;99.90;;;;;;4967560;28;20023;-77
2021/03/09 10:37:10;;;;;;;21.10;13.57;;;8.20;99.90;;;;;;4971736;28;20059;-77
2021/03/09 10:39:57;;;;;;;21.13;12.82;;;8.90;99.90;;;;;;4972793;28;20022;-75
2021/03/09 10:42:35;;;;;;;20.75;13.30;;;8.30;99.90;;;;;;4960740;28;20076;-78
2021/03/09 10:45:16;;;;;;;19.45;13.00;;;7.60;99.90;;;;;;4960754;28;20051;-78
2021/03/09 10:47:42;;;;;;;24.52;15.90;;;8.20;99.90;;;;;;4969914;28;20030;-76
2021/03/09 10:50:10;;;;;;;22.10;13.75;;;8.30;99.90;;;;;;4966047;28;20034;-75
2021/03/09 10:52:36;;;;;;;22.15;13.88;;;8.40;99.90;;;;;;4967450;28;20034;-76
2021/03/09 10:55:02;;;;;;;21.67;13.55;;;8.60;99.90;;;;;;4962058;28;20500;-75
2021/03/09 10:57:28;;;;;;;20.52;13.65;;;8.60;99.90;;;;;;4944114;28;20034;-75
2021/03/09 10:59:53;;;;;;;21.05;13.15;;;8.30;99.90;;;;;;4965157;28;20380;-76
2021/03/09 11:02:19;;;;;;;21.10;13.13;;;7.70;99.90;;;;;;4971266;28;20485;-75
2021/03/09 11:04:45;;;;;;;22.10;13.55;;;7.80;99.90;;;;;;4968248;28;20146;-77
2021/03/09 11:07:11;;;;;;;19.33;13.48;;;7.50;99.90;;;;;;4965731;28;20043;-75
2021/03/09 11:09:36;;;;;;;17.85;12.35;;;7.40;99.90;;;;;;4953461;28;20038;-75
2021/03/09 11:12:03;;;;;;;21.27;12.52;;;7.60;99.90;;;;;;4961296;28;20397;-77
2021/03/09 11:14:29;;;;;;;18.85;11.73;;;7.80;99.90;;;;;;4971926;28;20026;-78
2021/03/09 11:16:55;;;;;;;20.60;13.25;;;7.90;99.90;;;;;;4963682;28;20034;-78
2021/03/09 11:19:21;;;;;;;20.63;13.35;;;8.00;99.90;;;;;;4969916;28;20042;-76
2021/03/09 11:21:46;;;;;;;18.67;12.93;;;8.10;99.90;;;;;;4971548;28;20393;-77
2021/03/09 11:24:12;;;;;;;19.45;12.27;;;7.80;99.90;;;;;;4954316;28;20023;-77
2021/03/09 11:26:38;;;;;;;19.83;13.45;;;7.70;99.90;;;;;;4961707;28;20031;-77
2021/03/09 11:29:04;;;;;;;19.42;13.82;;;7.90;99.90;;;;;;4952807;29;20027;-77
2021/03/09 11:31:30;;;;;;;19.38;13.30;;;8.30;99.90;;;;;;4961116;28;20095;-76
2021/03/09 11:33:56;;;;;;;18.90;12.00;;;8.70;99.90;;;;;;4970823;28;20059;-76
2021/03/09 11:36:22;;;;;;;21.95;12.25;;;8.80;99.90;;;;;;4972425;28;20035;-75
2021/03/09 11:38:48;;;;;;;23.25;12.75;;;8.70;99.90;;;;;;4970028;28;20480;-76
2021/03/09 11:41:17;;;;;;;19.88;12.75;;;9.40;99.90;;;;;;4961546;28;20023;-75
2021/03/09 11:43:43;;;;;;;18.88;13.13;;;9.30;99.90;;;;;;4955205;28;20043;-75
2021/03/09 11:46:09;;;;;;;17.08;12.45;;;8.60;99.90;;;;;;4964749;28;20035;-74
2021/03/09 11:48:36;;;;;;;20.38;13.02;;;8.30;99.90;;;;;;4953841;28;20486;-77
2021/03/09 11:51:02;;;;;;;16.95;12.73;;;8.50;99.90;;;;;;4965863;28;20034;-76
2021/03/09 11:53:28;;;;;;;19.80;13.75;;;8.40;99.90;;;;;;4960583;28;20030;-75
2021/03/09 11:55:54;;;;;;;20.95;12.80;;;8.30;99.90;;;;;;4959752;28;20103;-76
2021/03/09 11:58:20;;;;;;;21.60;14.27;;;8.10;99.90;;;;;;4956545;28;20035;-75
2021/03/09 12:00:46;;;;;;;22.00;14.43;;;8.50;99.90;;;;;;4952820;29;20106;-76
2021/03/09 12:03:12;;;;;;;18.55;13.52;;;9.10;99.90;;;;;;4952402;29;20492;-75
2021/03/09 12:05:37;;;;;;;18.88;12.23;;;9.00;99.90;;;;;;4953035;29;20020;-75
2021/03/09 12:08:04;;;;;;;19.67;14.07;;;8.90;99.90;;;;;;4951062;29;20043;-75
2021/03/09 12:10:29;;;;;;;22.08;13.05;;;9.20;99.90;;;;;;4952369;28;20035;-75
2021/03/09 12:12:55;;;;;;;18.23;12.88;;;9.10;99.90;;;;;;4952895;29;20031;-75
2021/03/09 12:15:22;;;;;;;19.17;13.10;;;9.40;99.90;;;;;;4952566;29;20112;-76
2021/03/09 12:17:48;;;;;;;20.50;13.20;;;9.70;99.90;;;;;;4956280;28;20348;-75
2021/03/09 12:20:14;;;;;;;18.88;13.13;;;9.70;99.90;;;;;;4944357;28;20497;-76
2021/03/09 12:22:40;;;;;;;17.00;12.02;;;9.60;99.90;;;;;;4957556;28;20038;-77
2021/03/09 12:25:06;;;;;;;18.20;12.07;;;9.80;99.90;;;;;;4966420;28;20027;-74
2021/03/09 12:27:35;;;;;;;20.17;12.88;;;9.70;99.90;;;;;;4975075;28;20023;-75
2021/03/09 12:30:02;;;;;;;21.42;13.00;;;9.80;99.90;;;;;;4975026;28;20034;-75
2021/03/09 12:32:28;;;;;;;24.98;12.63;;;9.10;99.90;;;;;;4961268;28;20118;-75
2021/03/09 12:34:54;;;;;;;16.17;12.38;;;9.30;99.90;;;;;;4971536;28;20117;-75
2021/03/09 12:37:19;;;;;;;17.35;12.60;;;9.50;99.90;;;;;;4975403;28;20177;-76
2021/03/09 12:39:45;;;;;;;17.58;11.95;;;9.20;99.90;;;;;;4975568;28;20034;-76
2021/03/09 12:42:11;;;;;;;17.65;12.98;;;8.50;99.90;;;;;;4975036;28;20082;-76
2021/03/09 12:44:36;;;;;;;19.65;13.40;;;8.50;99.90;;;;;;4973977;28;20078;-76
2021/03/09 12:47:02;;;;;;;20.38;12.98;;;9.10;99.90;;;;;;4971386;28;20093;-76
2021/03/09 12:49:28;;;;;;;18.63;12.90;;;9.30;99.90;;;;;;4959122;28;20148;-76
2021/03/09 12:51:54;;;;;;;24.17;12.65;;;8.90;99.90;;;;;;4972688;28;20090;-76